sensor_id;sensor_type;location;lat;lon;timestamp;P1;durP1;ratioP1;P2;durP2;ratioP2
20271;SDS011;10295;49.812;9.866;2023-02-26T00:00:09;12.83;;;3.20;;
20271;SDS011;10295;49.812;9.866;2023-02-26T00:02:40;12.63;;;3.20;;
20271;SDS011;10295;49.812;9.866;2023-02-26T00:05:08;12.17;;;3.33;;
20271;SDS011;10295;49.812;9.866;2023-02-26T00:07:36;13.10;;;4.20;;
20271;SDS011;10295;49.812;9.866;2023-02-26T00:10:04;10.77;;;3.57;;
20271;SDS011;10295;49.812;9.866;2023-02-26T00:12:31;14.97;;;4.63;;
20271;SDS011;10295;49.812;9.866;2023-02-26T00:14:59;10.77;;;3.60;;
20271;SDS011;10295;49.812;9.866;2023-02-26T00:19:56;9.97;;;3.50;;
20271;SDS011;10295;49.812;9.866;2023-02-26T00:22:23;12.97;;;3.50;;
20271;SDS011;10295;49.812;9.866;2023-02-26T00:24:51;11.53;;;3.40;;
20271;SDS011;10295;49.812;9.866;2023-02-26T00:27:18;9.57;;;3.10;;
20271;SDS011;10295;49.812;9.866;2023-02-26T00:29:45;13.30;;;3.50;;
20271;SDS011;10295;49.812;9.866;2023-02-26T00:32:12;9.87;;;3.70;;
20271;SDS011;10295;49.812;9.866;2023-02-26T00:34:40;12.57;;;3.53;;
20271;SDS011;10295;49.812;9.866;2023-02-26T00:39:45;13.50;;;3.40;;
20271;SDS011;10295;49.812;9.866;2023-02-26T00:42:13;10.63;;;3.43;;
20271;SDS011;10295;49.812;9.866;2023-02-26T00:44:41;10.30;;;3.60;;
20271;SDS011;10295;49.812;9.866;2023-02-26T00:47:17;12.70;;;3.70;;
20271;SDS011;10295;49.812;9.866;2023-02-26T00:50:04;14.43;;;3.97;;
20271;SDS011;10295;49.812;9.866;2023-02-26T00:55:06;14.13;;;3.63;;
20271;SDS011;10295;49.812;9.866;2023-02-26T00:57:33;11.60;;;3.67;;
20271;SDS011;10295;49.812;9.866;2023-02-26T01:00:01;11.27;;;3.77;;
20271;SDS011;10295;49.812;9.866;2023-02-26T01:02:31;16.07;;;3.90;;
20271;SDS011;10295;49.812;9.866;2023-02-26T01:04:58;11.93;;;3.93;;
20271;SDS011;10295;49.812;9.866;2023-02-26T01:07:26;12.37;;;3.80;;
20271;SDS011;10295;49.812;9.866;2023-02-26T01:09:54;11.33;;;3.77;;
20271;SDS011;10295;49.812;9.866;2023-02-26T01:12:21;11.87;;;3.97;;
20271;SDS011;10295;49.812;9.866;2023-02-26T01:14:48;12.00;;;3.63;;
20271;SDS011;10295;49.812;9.866;2023-02-26T01:17:22;11.80;;;3.50;;
20271;SDS011;10295;49.812;9.866;2023-02-26T01:20:00;12.07;;;3.97;;
20271;SDS011;10295;49.812;9.866;2023-02-26T01:22:34;14.80;;;3.80;;
20271;SDS011;10295;49.812;9.866;2023-02-26T01:25:13;9.40;;;2.77;;
20271;SDS011;10295;49.812;9.866;2023-02-26T01:27:43;9.63;;;2.80;;
20271;SDS011;10295;49.812;9.866;2023-02-26T01:30:10;8.40;;;2.80;;
20271;SDS011;10295;49.812;9.866;2023-02-26T01:32:42;11.33;;;2.93;;
20271;SDS011;10295;49.812;9.866;2023-02-26T01:35:20;9.97;;;2.80;;
20271;SDS011;10295;49.812;9.866;2023-02-26T01:37:52;11.13;;;2.70;;
20271;SDS011;10295;49.812;9.866;2023-02-26T01:42:59;12.43;;;2.93;;
20271;SDS011;10295;49.812;9.866;2023-02-26T01:45:31;13.40;;;2.80;;
20271;SDS011;10295;49.812;9.866;2023-02-26T01:48:01;13.43;;;3.00;;
20271;SDS011;10295;49.812;9.866;2023-02-26T01:50:31;11.43;;;3.10;;
20271;SDS011;10295;49.812;9.866;2023-02-26T01:53:13;11.97;;;3.00;;
20271;SDS011;10295;49.812;9.866;2023-02-26T01:55:42;12.27;;;2.67;;
20271;SDS011;10295;49.812;9.866;2023-02-26T01:58:10;11.17;;;2.97;;
20271;SDS011;10295;49.812;9.866;2023-02-26T02:00:37;11.23;;;2.57;;
20271;SDS011;10295;49.812;9.866;2023-02-26T02:03:04;10.97;;;2.40;;
20271;SDS011;10295;49.812;9.866;2023-02-26T02:05:33;16.53;;;3.10;;
20271;SDS011;10295;49.812;9.866;2023-02-26T02:08:04;11.90;;;2.80;;
20271;SDS011;10295;49.812;9.866;2023-02-26T02:10:31;11.37;;;2.47;;
20271;SDS011;10295;49.812;9.866;2023-02-26T02:15:46;9.73;;;2.60;;
20271;SDS011;10295;49.812;9.866;2023-02-26T02:18:21;13.43;;;2.87;;
20271;SDS011;10295;49.812;9.866;2023-02-26T02:20:58;10.13;;;2.50;;
20271;SDS011;10295;49.812;9.866;2023-02-26T02:31:46;9.30;;;2.70;;
20271;SDS011;10295;49.812;9.866;2023-02-26T02:34:20;11.17;;;2.50;;
20271;SDS011;10295;49.812;9.866;2023-02-26T02:36:56;5.90;;;2.27;;
20271;SDS011;10295;49.812;9.866;2023-02-26T02:41:54;10.27;;;2.50;;
20271;SDS011;10295;49.812;9.866;2023-02-26T02:44:23;12.70;;;2.80;;
20271;SDS011;10295;49.812;9.866;2023-02-26T02:46:52;12.37;;;2.97;;
20271;SDS011;10295;49.812;9.866;2023-02-26T02:49:28;10.90;;;2.60;;
20271;SDS011;10295;49.812;9.866;2023-02-26T02:52:05;11.33;;;2.90;;
20271;SDS011;10295;49.812;9.866;2023-02-26T02:54:38;11.07;;;2.90;;
20271;SDS011;10295;49.812;9.866;2023-02-26T02:57:08;11.13;;;3.13;;
20271;SDS011;10295;49.812;9.866;2023-02-26T02:59:39;10.50;;;2.47;;
20271;SDS011;10295;49.812;9.866;2023-02-26T03:02:16;12.43;;;2.70;;
20271;SDS011;10295;49.812;9.866;2023-02-26T03:04:45;10.70;;;2.70;;
20271;SDS011;10295;49.812;9.866;2023-02-26T03:07:12;15.70;;;2.97;;
20271;SDS011;10295;49.812;9.866;2023-02-26T03:09:39;13.07;;;2.60;;
20271;SDS011;10295;49.812;9.866;2023-02-26T03:12:07;9.47;;;2.70;;
20271;SDS011;10295;49.812;9.866;2023-02-26T03:14:34;8.83;;;2.60;;
20271;SDS011;10295;49.812;9.866;2023-02-26T03:19:30;9.50;;;2.70;;
20271;SDS011;10295;49.812;9.866;2023-02-26T03:22:04;10.60;;;2.40;;
20271;SDS011;10295;49.812;9.866;2023-02-26T03:27:30;13.50;;;2.60;;
20271;SDS011;10295;49.812;9.866;2023-02-26T03:30:07;13.03;;;2.90;;
20271;SDS011;10295;49.812;9.866;2023-02-26T03:35:06;12.63;;;2.60;;
20271;SDS011;10295;49.812;9.866;2023-02-26T03:37:45;10.10;;;2.70;;
20271;SDS011;10295;49.812;9.866;2023-02-26T03:40:15;14.73;;;2.77;;
20271;SDS011;10295;49.812;9.866;2023-02-26T03:42:52;10.27;;;2.80;;
20271;SDS011;10295;49.812;9.866;2023-02-26T03:45:25;10.63;;;2.70;;
20271;SDS011;10295;49.812;9.866;2023-02-26T03:47:53;8.07;;;2.30;;
20271;SDS011;10295;49.812;9.866;2023-02-26T03:50:26;11.80;;;2.63;;
20271;SDS011;10295;49.812;9.866;2023-02-26T03:52:55;9.40;;;2.20;;
20271;SDS011;10295;49.812;9.866;2023-02-26T03:55:25;9.87;;;2.47;;
20271;SDS011;10295;49.812;9.866;2023-02-26T03:57:54;11.97;;;2.60;;
20271;SDS011;10295;49.812;9.866;2023-02-26T04:00:22;8.50;;;2.23;;
20271;SDS011;10295;49.812;9.866;2023-02-26T04:03:00;9.37;;;2.47;;
20271;SDS011;10295;49.812;9.866;2023-02-26T04:05:34;8.83;;;2.33;;
20271;SDS011;10295;49.812;9.866;2023-02-26T04:08:03;13.17;;;2.47;;
20271;SDS011;10295;49.812;9.866;2023-02-26T04:11:13;11.13;;;2.13;;
20271;SDS011;10295;49.812;9.866;2023-02-26T04:13:20;12.23;;;2.27;;
20271;SDS011;10295;49.812;9.866;2023-02-26T04:15:47;10.80;;;2.30;;
20271;SDS011;10295;49.812;9.866;2023-02-26T04:18:15;11.53;;;2.17;;
20271;SDS011;10295;49.812;9.866;2023-02-26T04:20:42;8.53;;;2.20;;
20271;SDS011;10295;49.812;9.866;2023-02-26T04:23:09;10.93;;;2.10;;
20271;SDS011;10295;49.812;9.866;2023-02-26T04:25:36;10.07;;;2.30;;
20271;SDS011;10295;49.812;9.866;2023-02-26T04:28:03;8.43;;;2.10;;
20271;SDS011;10295;49.812;9.866;2023-02-26T04:30:30;12.70;;;2.47;;
20271;SDS011;10295;49.812;9.866;2023-02-26T04:32:57;11.97;;;2.50;;
20271;SDS011;10295;49.812;9.866;2023-02-26T04:35:25;12.47;;;2.40;;
20271;SDS011;10295;49.812;9.866;2023-02-26T04:37:52;11.63;;;2.37;;
20271;SDS011;10295;49.812;9.866;2023-02-26T04:40:19;8.63;;;2.70;;
20271;SDS011;10295;49.812;9.866;2023-02-26T04:42:48;9.07;;;2.23;;
20271;SDS011;10295;49.812;9.866;2023-02-26T04:45:16;12.77;;;2.30;;
20271;SDS011;10295;49.812;9.866;2023-02-26T04:47:43;11.03;;;2.30;;
20271;SDS011;10295;49.812;9.866;2023-02-26T04:50:10;10.17;;;2.20;;
20271;SDS011;10295;49.812;9.866;2023-02-26T04:52:37;11.30;;;2.40;;
20271;SDS011;10295;49.812;9.866;2023-02-26T04:55:05;12.93;;;2.27;;
20271;SDS011;10295;49.812;9.866;2023-02-26T04:57:32;9.67;;;2.20;;
20271;SDS011;10295;49.812;9.866;2023-02-26T05:00:00;6.83;;;2.07;;
20271;SDS011;10295;49.812;9.866;2023-02-26T05:02:27;10.97;;;2.43;;
20271;SDS011;10295;49.812;9.866;2023-02-26T05:04:54;8.43;;;2.13;;
20271;SDS011;10295;49.812;9.866;2023-02-26T05:07:21;9.27;;;2.27;;
20271;SDS011;10295;49.812;9.866;2023-02-26T05:09:48;8.83;;;2.23;;
20271;SDS011;10295;49.812;9.866;2023-02-26T05:12:16;9.50;;;2.53;;
20271;SDS011;10295;49.812;9.866;2023-02-26T05:14:43;6.70;;;1.83;;
20271;SDS011;10295;49.812;9.866;2023-02-26T05:17:10;9.30;;;1.90;;
20271;SDS011;10295;49.812;9.866;2023-02-26T05:19:37;9.30;;;2.10;;
20271;SDS011;10295;49.812;9.866;2023-02-26T05:22:04;9.03;;;1.97;;
20271;SDS011;10295;49.812;9.866;2023-02-26T05:24:32;10.17;;;1.83;;
20271;SDS011;10295;49.812;9.866;2023-02-26T05:27:00;12.63;;;2.10;;
20271;SDS011;10295;49.812;9.866;2023-02-26T05:29:27;8.90;;;2.23;;
20271;SDS011;10295;49.812;9.866;2023-02-26T05:31:54;8.20;;;2.03;;
20271;SDS011;10295;49.812;9.866;2023-02-26T05:34:21;7.87;;;1.73;;
20271;SDS011;10295;49.812;9.866;2023-02-26T05:36:48;9.40;;;2.50;;
20271;SDS011;10295;49.812;9.866;2023-02-26T05:39:15;8.63;;;1.77;;
20271;SDS011;10295;49.812;9.866;2023-02-26T05:41:43;6.37;;;1.43;;
20271;SDS011;10295;49.812;9.866;2023-02-26T05:44:11;9.07;;;1.97;;
20271;SDS011;10295;49.812;9.866;2023-02-26T05:46:39;7.07;;;1.47;;
20271;SDS011;10295;49.812;9.866;2023-02-26T05:49:06;7.00;;;1.80;;
20271;SDS011;10295;49.812;9.866;2023-02-26T05:51:33;7.10;;;1.70;;
20271;SDS011;10295;49.812;9.866;2023-02-26T05:54:00;9.23;;;1.70;;
20271;SDS011;10295;49.812;9.866;2023-02-26T05:56:27;6.63;;;1.50;;
20271;SDS011;10295;49.812;9.866;2023-02-26T05:58:54;7.47;;;1.60;;
20271;SDS011;10295;49.812;9.866;2023-02-26T06:01:21;7.47;;;1.60;;
20271;SDS011;10295;49.812;9.866;2023-02-26T06:03:49;6.67;;;1.47;;
20271;SDS011;10295;49.812;9.866;2023-02-26T06:06:16;6.90;;;1.73;;
20271;SDS011;10295;49.812;9.866;2023-02-26T06:08:44;8.00;;;1.50;;
20271;SDS011;10295;49.812;9.866;2023-02-26T06:11:11;6.97;;;1.40;;
20271;SDS011;10295;49.812;9.866;2023-02-26T06:13:38;9.37;;;1.77;;
20271;SDS011;10295;49.812;9.866;2023-02-26T06:16:06;8.93;;;2.10;;
20271;SDS011;10295;49.812;9.866;2023-02-26T06:18:33;7.60;;;1.97;;
20271;SDS011;10295;49.812;9.866;2023-02-26T06:21:00;13.67;;;2.10;;
20271;SDS011;10295;49.812;9.866;2023-02-26T06:23:28;9.40;;;2.10;;
20271;SDS011;10295;49.812;9.866;2023-02-26T06:25:55;6.37;;;1.57;;
20271;SDS011;10295;49.812;9.866;2023-02-26T06:28:24;9.20;;;1.63;;
20271;SDS011;10295;49.812;9.866;2023-02-26T06:30:51;8.13;;;1.93;;
20271;SDS011;10295;49.812;9.866;2023-02-26T06:33:19;7.90;;;1.90;;
20271;SDS011;10295;49.812;9.866;2023-02-26T06:35:46;9.47;;;2.00;;
20271;SDS011;10295;49.812;9.866;2023-02-26T06:38:13;13.03;;;1.90;;
20271;SDS011;10295;49.812;9.866;2023-02-26T06:40:41;7.83;;;1.90;;
20271;SDS011;10295;49.812;9.866;2023-02-26T06:43:08;8.17;;;1.70;;
20271;SDS011;10295;49.812;9.866;2023-02-26T06:45:35;8.27;;;1.70;;
20271;SDS011;10295;49.812;9.866;2023-02-26T06:48:02;7.37;;;2.00;;
20271;SDS011;10295;49.812;9.866;2023-02-26T06:50:30;10.90;;;2.00;;
20271;SDS011;10295;49.812;9.866;2023-02-26T06:52:57;7.20;;;1.83;;
20271;SDS011;10295;49.812;9.866;2023-02-26T06:55:24;9.07;;;2.27;;
20271;SDS011;10295;49.812;9.866;2023-02-26T06:57:55;7.37;;;1.60;;
20271;SDS011;10295;49.812;9.866;2023-02-26T07:00:23;7.83;;;1.97;;
20271;SDS011;10295;49.812;9.866;2023-02-26T07:02:51;9.30;;;2.20;;
20271;SDS011;10295;49.812;9.866;2023-02-26T07:05:18;11.87;;;1.93;;
20271;SDS011;10295;49.812;9.866;2023-02-26T07:07:46;8.27;;;2.10;;
20271;SDS011;10295;49.812;9.866;2023-02-26T07:10:13;5.10;;;1.40;;
20271;SDS011;10295;49.812;9.866;2023-02-26T07:12:40;9.03;;;1.73;;
20271;SDS011;10295;49.812;9.866;2023-02-26T07:15:07;9.30;;;1.80;;
20271;SDS011;10295;49.812;9.866;2023-02-26T07:17:35;9.33;;;2.00;;
20271;SDS011;10295;49.812;9.866;2023-02-26T07:20:02;9.70;;;2.10;;
20271;SDS011;10295;49.812;9.866;2023-02-26T07:22:35;6.77;;;1.83;;
20271;SDS011;10295;49.812;9.866;2023-02-26T07:25:03;9.37;;;2.00;;
20271;SDS011;10295;49.812;9.866;2023-02-26T07:27:30;4.90;;;1.40;;
20271;SDS011;10295;49.812;9.866;2023-02-26T07:29:58;8.60;;;1.87;;
20271;SDS011;10295;49.812;9.866;2023-02-26T07:32:26;8.03;;;1.80;;
20271;SDS011;10295;49.812;9.866;2023-02-26T07:34:53;7.50;;;1.93;;
20271;SDS011;10295;49.812;9.866;2023-02-26T07:37:20;7.43;;;1.80;;
20271;SDS011;10295;49.812;9.866;2023-02-26T07:39:47;6.97;;;1.73;;
20271;SDS011;10295;49.812;9.866;2023-02-26T07:42:15;7.10;;;1.63;;
20271;SDS011;10295;49.812;9.866;2023-02-26T07:44:42;6.87;;;1.60;;
20271;SDS011;10295;49.812;9.866;2023-02-26T07:47:10;6.50;;;1.33;;
20271;SDS011;10295;49.812;9.866;2023-02-26T07:49:37;6.57;;;1.40;;
20271;SDS011;10295;49.812;9.866;2023-02-26T07:52:05;5.23;;;1.57;;
20271;SDS011;10295;49.812;9.866;2023-02-26T07:54:33;4.10;;;1.10;;
20271;SDS011;10295;49.812;9.866;2023-02-26T07:57:01;3.87;;;1.20;;
20271;SDS011;10295;49.812;9.866;2023-02-26T07:59:28;7.57;;;1.57;;
20271;SDS011;10295;49.812;9.866;2023-02-26T08:01:55;7.90;;;1.60;;
20271;SDS011;10295;49.812;9.866;2023-02-26T08:04:22;6.73;;;1.43;;
20271;SDS011;10295;49.812;9.866;2023-02-26T08:06:50;5.10;;;1.27;;
20271;SDS011;10295;49.812;9.866;2023-02-26T08:09:20;4.43;;;1.10;;
20271;SDS011;10295;49.812;9.866;2023-02-26T08:11:47;6.43;;;1.30;;
20271;SDS011;10295;49.812;9.866;2023-02-26T08:14:14;5.90;;;1.57;;
20271;SDS011;10295;49.812;9.866;2023-02-26T08:16:41;5.20;;;1.63;;
20271;SDS011;10295;49.812;9.866;2023-02-26T08:19:08;9.20;;;1.67;;
20271;SDS011;10295;49.812;9.866;2023-02-26T08:21:36;8.10;;;1.40;;
20271;SDS011;10295;49.812;9.866;2023-02-26T08:24:04;6.70;;;1.67;;
20271;SDS011;10295;49.812;9.866;2023-02-26T08:26:34;3.57;;;1.13;;
20271;SDS011;10295;49.812;9.866;2023-02-26T08:29:01;6.07;;;1.30;;
20271;SDS011;10295;49.812;9.866;2023-02-26T08:31:29;4.13;;;1.23;;
20271;SDS011;10295;49.812;9.866;2023-02-26T08:33:57;5.27;;;1.30;;
20271;SDS011;10295;49.812;9.866;2023-02-26T08:36:24;5.10;;;1.23;;
20271;SDS011;10295;49.812;9.866;2023-02-26T08:38:52;2.90;;;1.00;;
20271;SDS011;10295;49.812;9.866;2023-02-26T08:41:19;4.90;;;1.30;;
20271;SDS011;10295;49.812;9.866;2023-02-26T08:43:47;2.33;;;0.90;;
20271;SDS011;10295;49.812;9.866;2023-02-26T08:46:14;6.20;;;1.30;;
20271;SDS011;10295;49.812;9.866;2023-02-26T08:48:41;4.77;;;1.10;;
20271;SDS011;10295;49.812;9.866;2023-02-26T08:51:08;4.97;;;1.20;;
20271;SDS011;10295;49.812;9.866;2023-02-26T08:53:36;2.97;;;1.00;;
20271;SDS011;10295;49.812;9.866;2023-02-26T08:56:05;3.37;;;1.00;;
20271;SDS011;10295;49.812;9.866;2023-02-26T08:58:32;3.83;;;1.10;;
20271;SDS011;10295;49.812;9.866;2023-02-26T09:00:59;4.43;;;1.07;;
20271;SDS011;10295;49.812;9.866;2023-02-26T09:03:26;4.60;;;1.23;;
20271;SDS011;10295;49.812;9.866;2023-02-26T09:05:53;5.73;;;1.10;;
20271;SDS011;10295;49.812;9.866;2023-02-26T09:08:20;2.33;;;1.10;;
20271;SDS011;10295;49.812;9.866;2023-02-26T09:10:48;5.20;;;1.10;;
20271;SDS011;10295;49.812;9.866;2023-02-26T09:13:15;3.80;;;1.10;;
20271;SDS011;10295;49.812;9.866;2023-02-26T09:15:42;3.27;;;0.87;;
20271;SDS011;10295;49.812;9.866;2023-02-26T09:18:09;3.50;;;0.90;;
20271;SDS011;10295;49.812;9.866;2023-02-26T09:20:41;3.00;;;0.90;;
20271;SDS011;10295;49.812;9.866;2023-02-26T09:23:09;2.57;;;0.77;;
20271;SDS011;10295;49.812;9.866;2023-02-26T09:25:37;2.40;;;0.80;;
20271;SDS011;10295;49.812;9.866;2023-02-26T09:28:04;4.47;;;1.10;;
20271;SDS011;10295;49.812;9.866;2023-02-26T09:30:32;4.70;;;1.03;;
20271;SDS011;10295;49.812;9.866;2023-02-26T09:32:59;5.07;;;1.10;;
20271;SDS011;10295;49.812;9.866;2023-02-26T09:35:26;2.10;;;0.77;;
20271;SDS011;10295;49.812;9.866;2023-02-26T09:37:53;3.03;;;0.90;;
20271;SDS011;10295;49.812;9.866;2023-02-26T09:41:07;4.37;;;1.10;;
20271;SDS011;10295;49.812;9.866;2023-02-26T09:45:55;2.40;;;0.90;;
20271;SDS011;10295;49.812;9.866;2023-02-26T09:48:23;2.27;;;0.80;;
20271;SDS011;10295;49.812;9.866;2023-02-26T09:50:52;5.20;;;1.27;;
20271;SDS011;10295;49.812;9.866;2023-02-26T09:53:22;4.40;;;1.27;;
20271;SDS011;10295;49.812;9.866;2023-02-26T09:55:51;5.40;;;1.00;;
20271;SDS011;10295;49.812;9.866;2023-02-26T10:00:57;11.40;;;3.70;;
20271;SDS011;10295;49.812;9.866;2023-02-26T10:08:55;8.50;;;2.33;;
20271;SDS011;10295;49.812;9.866;2023-02-26T10:11:28;8.23;;;2.50;;
20271;SDS011;10295;49.812;9.866;2023-02-26T10:14:06;6.50;;;1.50;;
20271;SDS011;10295;49.812;9.866;2023-02-26T10:16:39;4.70;;;1.33;;
20271;SDS011;10295;49.812;9.866;2023-02-26T10:19:08;3.83;;;1.40;;
20271;SDS011;10295;49.812;9.866;2023-02-26T10:24:21;6.50;;;1.30;;
20271;SDS011;10295;49.812;9.866;2023-02-26T10:26:53;2.43;;;0.90;;
20271;SDS011;10295;49.812;9.866;2023-02-26T10:29:31;2.73;;;0.90;;
20271;SDS011;10295;49.812;9.866;2023-02-26T10:32:08;3.47;;;0.80;;
20271;SDS011;10295;49.812;9.866;2023-02-26T10:34:57;2.43;;;0.90;;
20271;SDS011;10295;49.812;9.866;2023-02-26T10:42:37;2.70;;;0.90;;
20271;SDS011;10295;49.812;9.866;2023-02-26T10:47:44;3.87;;;0.90;;
20271;SDS011;10295;49.812;9.866;2023-02-26T10:50:12;2.83;;;0.70;;
20271;SDS011;10295;49.812;9.866;2023-02-26T10:52:41;3.53;;;0.80;;
20271;SDS011;10295;49.812;9.866;2023-02-26T10:57:57;2.30;;;0.70;;
20271;SDS011;10295;49.812;9.866;2023-02-26T11:00:26;2.80;;;0.80;;
20271;SDS011;10295;49.812;9.866;2023-02-26T11:02:53;1.83;;;0.70;;
20271;SDS011;10295;49.812;9.866;2023-02-26T11:05:26;2.23;;;0.70;;
20271;SDS011;10295;49.812;9.866;2023-02-26T11:08:01;1.90;;;0.73;;
20271;SDS011;10295;49.812;9.866;2023-02-26T11:10:38;1.83;;;0.80;;
20271;SDS011;10295;49.812;9.866;2023-02-26T11:13:05;2.87;;;0.77;;
20271;SDS011;10295;49.812;9.866;2023-02-26T11:15:32;3.10;;;0.90;;
20271;SDS011;10295;49.812;9.866;2023-02-26T11:18:00;2.17;;;0.90;;
20271;SDS011;10295;49.812;9.866;2023-02-26T11:20:37;2.10;;;0.80;;
20271;SDS011;10295;49.812;9.866;2023-02-26T11:23:06;2.03;;;0.90;;
20271;SDS011;10295;49.812;9.866;2023-02-26T11:25:33;2.40;;;0.97;;
20271;SDS011;10295;49.812;9.866;2023-02-26T11:28:04;4.27;;;1.03;;
20271;SDS011;10295;49.812;9.866;2023-02-26T11:30:36;4.63;;;1.00;;
20271;SDS011;10295;49.812;9.866;2023-02-26T11:33:09;2.30;;;0.97;;
20271;SDS011;10295;49.812;9.866;2023-02-26T11:35:39;2.47;;;0.60;;
20271;SDS011;10295;49.812;9.866;2023-02-26T11:38:07;6.47;;;1.40;;
20271;SDS011;10295;49.812;9.866;2023-02-26T11:40:42;2.77;;;0.93;;
20271;SDS011;10295;49.812;9.866;2023-02-26T11:43:13;1.70;;;0.60;;
20271;SDS011;10295;49.812;9.866;2023-02-26T11:45:41;2.40;;;0.90;;
20271;SDS011;10295;49.812;9.866;2023-02-26T11:48:14;1.97;;;0.70;;
20271;SDS011;10295;49.812;9.866;2023-02-26T11:50:43;1.37;;;0.77;;
20271;SDS011;10295;49.812;9.866;2023-02-26T11:53:18;2.50;;;0.87;;
20271;SDS011;10295;49.812;9.866;2023-02-26T11:55:50;2.50;;;0.80;;
20271;SDS011;10295;49.812;9.866;2023-02-26T11:58:22;2.63;;;0.70;;
20271;SDS011;10295;49.812;9.866;2023-02-26T12:00:51;1.77;;;0.77;;
20271;SDS011;10295;49.812;9.866;2023-02-26T12:03:25;2.53;;;1.00;;
20271;SDS011;10295;49.812;9.866;2023-02-26T12:05:54;3.83;;;1.13;;
20271;SDS011;10295;49.812;9.866;2023-02-26T12:08:35;3.03;;;0.97;;
20271;SDS011;10295;49.812;9.866;2023-02-26T12:11:15;1.77;;;0.70;;
20271;SDS011;10295;49.812;9.866;2023-02-26T12:19:20;4.10;;;1.10;;
20271;SDS011;10295;49.812;9.866;2023-02-26T12:21:53;3.30;;;1.10;;
20271;SDS011;10295;49.812;9.866;2023-02-26T12:27:02;4.30;;;1.10;;
20271;SDS011;10295;49.812;9.866;2023-02-26T12:29:38;3.70;;;0.90;;
20271;SDS011;10295;49.812;9.866;2023-02-26T12:48:14;2.37;;;1.00;;
20271;SDS011;10295;49.812;9.866;2023-02-26T12:50:54;4.67;;;1.10;;
20271;SDS011;10295;49.812;9.866;2023-02-26T13:08:55;5.77;;;1.20;;
20271;SDS011;10295;49.812;9.866;2023-02-26T13:16:28;2.97;;;0.87;;
20271;SDS011;10295;49.812;9.866;2023-02-26T13:21:27;4.83;;;1.17;;
20271;SDS011;10295;49.812;9.866;2023-02-26T13:24:02;4.33;;;1.00;;
20271;SDS011;10295;49.812;9.866;2023-02-26T13:26:31;3.33;;;1.03;;
20271;SDS011;10295;49.812;9.866;2023-02-26T13:29:02;4.30;;;1.20;;
20271;SDS011;10295;49.812;9.866;2023-02-26T13:31:35;4.13;;;1.20;;
20271;SDS011;10295;49.812;9.866;2023-02-26T13:34:05;8.03;;;1.97;;
20271;SDS011;10295;49.812;9.866;2023-02-26T13:36:35;3.33;;;1.37;;
20271;SDS011;10295;49.812;9.866;2023-02-26T13:39:08;4.70;;;1.27;;
20271;SDS011;10295;49.812;9.866;2023-02-26T13:47:04;3.93;;;1.17;;
20271;SDS011;10295;49.812;9.866;2023-02-26T13:52:00;8.53;;;2.30;;
20271;SDS011;10295;49.812;9.866;2023-02-26T13:54:32;3.37;;;1.13;;
20271;SDS011;10295;49.812;9.866;2023-02-26T13:57:35;3.60;;;1.13;;
20271;SDS011;10295;49.812;9.866;2023-02-26T13:59:58;4.43;;;1.17;;
20271;SDS011;10295;49.812;9.866;2023-02-26T14:02:33;5.60;;;1.50;;
20271;SDS011;10295;49.812;9.866;2023-02-26T14:05:05;4.80;;;1.03;;
20271;SDS011;10295;49.812;9.866;2023-02-26T14:07:46;3.00;;;1.10;;
20271;SDS011;10295;49.812;9.866;2023-02-26T14:10:43;5.17;;;1.20;;
20271;SDS011;10295;49.812;9.866;2023-02-26T14:13:06;2.37;;;0.90;;
20271;SDS011;10295;49.812;9.866;2023-02-26T14:15:39;6.13;;;1.30;;
20271;SDS011;10295;49.812;9.866;2023-02-26T14:18:18;4.60;;;1.20;;
20271;SDS011;10295;49.812;9.866;2023-02-26T14:20:45;3.23;;;1.07;;
20271;SDS011;10295;49.812;9.866;2023-02-26T14:23:19;2.80;;;1.07;;
20271;SDS011;10295;49.812;9.866;2023-02-26T14:25:49;3.30;;;1.00;;
20271;SDS011;10295;49.812;9.866;2023-02-26T14:30:49;6.43;;;1.40;;
20271;SDS011;10295;49.812;9.866;2023-02-26T14:33:17;1.27;;;0.50;;
20271;SDS011;10295;49.812;9.866;2023-02-26T14:35:48;2.87;;;0.87;;
20271;SDS011;10295;49.812;9.866;2023-02-26T14:38:20;3.40;;;0.90;;
20271;SDS011;10295;49.812;9.866;2023-02-26T14:45:58;1.53;;;0.70;;
20271;SDS011;10295;49.812;9.866;2023-02-26T14:48:27;3.90;;;0.80;;
20271;SDS011;10295;49.812;9.866;2023-02-26T14:56:15;4.47;;;1.30;;
20271;SDS011;10295;49.812;9.866;2023-02-26T14:58:53;2.83;;;0.80;;
20271;SDS011;10295;49.812;9.866;2023-02-26T15:04:13;4.83;;;1.20;;
20271;SDS011;10295;49.812;9.866;2023-02-26T15:12:24;2.43;;;0.80;;
20271;SDS011;10295;49.812;9.866;2023-02-26T15:25:29;2.27;;;1.03;;
20271;SDS011;10295;49.812;9.866;2023-02-26T15:27:57;4.03;;;0.93;;
20271;SDS011;10295;49.812;9.866;2023-02-26T15:30:24;5.30;;;1.30;;
20271;SDS011;10295;49.812;9.866;2023-02-26T15:32:58;4.07;;;1.00;;
20271;SDS011;10295;49.812;9.866;2023-02-26T15:35:26;2.93;;;0.80;;
20271;SDS011;10295;49.812;9.866;2023-02-26T15:37:56;5.73;;;1.20;;
20271;SDS011;10295;49.812;9.866;2023-02-26T15:40:24;5.00;;;1.20;;
20271;SDS011;10295;49.812;9.866;2023-02-26T15:42:52;2.83;;;1.00;;
20271;SDS011;10295;49.812;9.866;2023-02-26T15:45:31;3.20;;;1.10;;
20271;SDS011;10295;49.812;9.866;2023-02-26T15:48:02;2.60;;;0.90;;
20271;SDS011;10295;49.812;9.866;2023-02-26T15:50:32;3.37;;;0.97;;
20271;SDS011;10295;49.812;9.866;2023-02-26T15:53:00;2.70;;;0.87;;
20271;SDS011;10295;49.812;9.866;2023-02-26T15:55:30;4.27;;;0.60;;
20271;SDS011;10295;49.812;9.866;2023-02-26T15:57:58;4.83;;;0.90;;
20271;SDS011;10295;49.812;9.866;2023-02-26T16:00:26;2.53;;;0.90;;
20271;SDS011;10295;49.812;9.866;2023-02-26T16:02:54;2.33;;;0.70;;
20271;SDS011;10295;49.812;9.866;2023-02-26T16:05:25;3.37;;;0.70;;
20271;SDS011;10295;49.812;9.866;2023-02-26T16:07:52;3.90;;;1.20;;
20271;SDS011;10295;49.812;9.866;2023-02-26T16:13:00;2.57;;;0.90;;
20271;SDS011;10295;49.812;9.866;2023-02-26T16:15:33;4.50;;;1.10;;
20271;SDS011;10295;49.812;9.866;2023-02-26T16:18:01;5.13;;;1.03;;
20271;SDS011;10295;49.812;9.866;2023-02-26T16:20:31;4.27;;;1.00;;
20271;SDS011;10295;49.812;9.866;2023-02-26T16:23:03;3.67;;;1.47;;
20271;SDS011;10295;49.812;9.866;2023-02-26T16:25:35;7.63;;;1.30;;
20271;SDS011;10295;49.812;9.866;2023-02-26T16:28:04;6.13;;;1.87;;
20271;SDS011;10295;49.812;9.866;2023-02-26T16:30:33;8.50;;;2.73;;
20271;SDS011;10295;49.812;9.866;2023-02-26T16:33:01;2.97;;;0.90;;
20271;SDS011;10295;49.812;9.866;2023-02-26T16:35:35;7.27;;;1.70;;
20271;SDS011;10295;49.812;9.866;2023-02-26T16:40:59;4.73;;;1.20;;
20271;SDS011;10295;49.812;9.866;2023-02-26T16:43:31;5.73;;;1.63;;
20271;SDS011;10295;49.812;9.866;2023-02-26T16:46:01;5.20;;;1.40;;
20271;SDS011;10295;49.812;9.866;2023-02-26T16:48:30;5.70;;;1.30;;
20271;SDS011;10295;49.812;9.866;2023-02-26T16:51:03;5.43;;;1.40;;
20271;SDS011;10295;49.812;9.866;2023-02-26T16:53:35;2.40;;;1.03;;
20271;SDS011;10295;49.812;9.866;2023-02-26T16:56:04;3.40;;;1.00;;
20271;SDS011;10295;49.812;9.866;2023-02-26T16:58:31;5.43;;;1.10;;
20271;SDS011;10295;49.812;9.866;2023-02-26T17:01:04;5.37;;;1.10;;
20271;SDS011;10295;49.812;9.866;2023-02-26T17:03:33;3.73;;;0.90;;
20271;SDS011;10295;49.812;9.866;2023-02-26T17:06:13;4.13;;;1.10;;
20271;SDS011;10295;49.812;9.866;2023-02-26T17:08:48;4.50;;;1.40;;
20271;SDS011;10295;49.812;9.866;2023-02-26T17:11:27;5.20;;;1.33;;
20271;SDS011;10295;49.812;9.866;2023-02-26T17:14:08;5.27;;;1.00;;
20271;SDS011;10295;49.812;9.866;2023-02-26T17:16:36;1.80;;;0.70;;
20271;SDS011;10295;49.812;9.866;2023-02-26T17:19:06;4.03;;;1.00;;
20271;SDS011;10295;49.812;9.866;2023-02-26T17:21:34;3.67;;;1.00;;
20271;SDS011;10295;49.812;9.866;2023-02-26T17:24:03;5.87;;;0.97;;
20271;SDS011;10295;49.812;9.866;2023-02-26T17:26:30;4.37;;;1.00;;
20271;SDS011;10295;49.812;9.866;2023-02-26T17:28:57;6.57;;;1.20;;